Time;durP1;ratioP1;P1;durP2;ratioP2;P2;SDS_P1;SDS_P2;PMS_P1;PMS_P2;Temp;Humidity;BMP_temperature;BMP_pressure;BME280_temperature;BME280_humidity;BME280_pressure;Samples;Min_cycle;Max_cycle;Signal;HPM_P1;HPM_P2
2021/04/17 00:02:20;;;;;;;13.43;5.88;;;9.00;62.70;;;8.99;52.57;101539.63;4993395;28;20062;-80
2021/04/17 00:04:47;;;;;;;11.13;5.70;;;9.00;62.40;;;8.96;52.57;101529.06;4993256;28;20073;-80
2021/04/17 00:07:17;;;;;;;10.48;5.45;;;9.00;62.60;;;8.97;52.20;101533.50;4994309;28;20117;-80
2021/04/17 00:09:44;;;;;;;10.05;4.97;;;9.00;62.00;;;8.97;52.37;101536.22;4993946;28;20403;-80
2021/04/17 00:12:16;;;;;;;10.50;5.22;;;9.00;62.10;;;9.00;52.66;101533.19;4994090;28;20046;-80
2021/04/17 00:14:45;;;;;;;9.95;5.25;;;9.00;62.10;;;8.99;52.27;101526.03;4993232;28;20046;-80
2021/04/17 00:17:14;;;;;;;11.32;5.18;;;9.00;62.20;;;8.91;53.03;101528.66;4994216;28;20077;-80
2021/04/17 00:19:43;;;;;;;10.73;5.40;;;9.00;62.90;;;8.91;53.22;101535.94;4993740;28;20053;-80
2021/04/17 00:22:10;;;;;;;9.73;4.90;;;9.00;62.90;;;8.91;53.58;101525.94;4993330;28;20126;-80
2021/04/17 00:24:37;;;;;;;12.73;4.72;;;9.00;63.40;;;8.91;53.02;101530.50;4992888;28;20038;-80
2021/04/17 00:27:06;;;;;;;10.88;6.20;;;9.00;63.00;;;8.86;53.72;101530.09;4993546;28;20061;-80
2021/04/17 00:29:35;;;;;;;9.00;4.65;;;8.90;63.50;;;8.85;53.61;101528.38;4992192;28;20056;-80
2021/04/17 00:32:03;;;;;;;10.43;4.90;;;8.90;63.30;;;8.85;53.47;101531.94;4993782;28;20110;-80
2021/04/17 00:34:30;;;;;;;9.25;4.97;;;8.90;63.10;;;8.76;53.66;101528.28;4988786;28;20038;-80
2021/04/17 00:36:57;;;;;;;9.30;5.05;;;8.90;63.30;;;8.71;53.92;101524.28;4992710;28;20062;-80
2021/04/17 00:39:24;;;;;;;9.60;4.65;;;8.90;63.70;;;8.77;53.64;101518.28;4986719;28;20062;-80
2021/04/17 00:41:51;;;;;;;14.80;5.00;;;9.00;63.50;;;8.73;54.02;101516.88;4993516;28;20046;-80
2021/04/17 00:44:18;;;;;;;10.75;4.70;;;8.90;63.70;;;8.75;53.44;101521.13;4993121;28;20042;-80
2021/04/17 00:46:46;;;;;;;10.88;4.55;;;8.90;63.20;;;8.75;53.29;101523.84;4992614;28;20621;-80
2021/04/17 00:49:13;;;;;;;9.65;5.10;;;8.90;63.30;;;8.76;53.39;101522.84;4993487;28;20646;-80
2021/04/17 00:51:41;;;;;;;10.20;5.40;;;8.90;63.40;;;8.70;54.55;101526.16;4993333;28;20047;-80
2021/04/17 00:54:08;;;;;;;9.63;4.82;;;8.90;63.90;;;8.72;54.11;101518.72;4990782;28;20306;-80
2021/04/17 00:56:36;;;;;;;9.52;4.25;;;8.90;63.60;;;8.74;53.05;101522.16;4993326;28;20073;-80
2021/04/17 00:59:03;;;;;;;8.90;4.30;;;8.90;63.10;;;8.78;54.09;101526.28;4986611;28;20061;-80
2021/04/17 01:01:29;;;;;;;10.00;5.38;;;8.90;63.80;;;8.71;53.96;101516.16;4987306;28;20070;-80
2021/04/17 01:04:04;;;;;;;12.32;4.82;;;8.80;63.80;;;8.54;54.94;101521.34;4992796;28;20050;-80
2021/04/17 01:06:39;;;;;;;8.93;4.38;;;8.80;64.50;;;8.57;54.29;101515.63;4993606;28;20655;-80
2021/04/17 01:09:12;;;;;;;10.20;4.80;;;8.80;64.40;;;8.62;54.09;101512.47;4993324;28;20050;-80
2021/04/17 01:11:44;;;;;;;9.80;4.30;;;8.90;64.40;;;8.50;55.29;101516.34;4993954;28;20065;-80
2021/04/17 01:14:12;;;;;;;9.13;4.20;;;8.70;64.70;;;8.47;54.90;101520.19;4992381;28;20042;-80
2021/04/17 01:16:40;;;;;;;7.10;4.07;;;8.80;64.20;;;8.54;54.13;101518.63;4993124;28;20038;-80
2021/04/17 01:19:13;;;;;;;10.10;4.30;;;8.70;64.10;;;8.53;54.75;101514.22;4992011;28;20043;-80
2021/04/17 01:21:42;;;;;;;8.73;4.20;;;8.70;64.50;;;8.61;53.96;101519.75;4993628;28;20043;-80
2021/04/17 01:24:17;;;;;;;7.50;4.25;;;8.70;63.60;;;8.60;54.00;101515.34;4992984;28;20046;-80
2021/04/17 01:26:46;;;;;;;9.07;4.35;;;8.70;64.30;;;8.50;54.29;101511.78;4993127;28;20046;-80
2021/04/17 01:29:13;;;;;;;13.15;4.30;;;8.70;64.70;;;8.53;53.78;101511.50;4991453;28;20137;-80
2021/04/17 01:31:41;;;;;;;9.02;4.22;;;8.70;64.20;;;8.59;54.58;101518.19;4993419;28;20046;-80
2021/04/17 01:34:09;;;;;;;11.35;4.05;;;8.70;64.70;;;8.58;54.16;101511.88;4990926;28;20050;-80
2021/04/17 01:36:39;;;;;;;10.00;4.38;;;8.70;64.50;;;8.55;54.24;101514.91;4992464;28;20038;-80
2021/04/17 01:39:09;;;;;;;8.68;4.78;;;8.60;64.80;;;8.45;54.65;101518.66;4992955;28;20101;-80
2021/04/17 01:41:43;;;;;;;8.02;3.92;;;8.60;65.10;;;8.45;54.97;101515.94;4991368;28;20784;-80
2021/04/17 01:44:16;;;;;;;11.27;5.00;;;8.60;64.50;;;8.43;55.10;101516.06;4990774;28;20105;-80
2021/04/17 01:46:45;;;;;;;8.93;4.32;;;8.60;65.10;;;8.25;55.74;101505.09;4992575;28;20502;-80
2021/04/17 01:49:16;;;;;;;9.55;4.50;;;8.50;65.40;;;8.07;56.31;101510.38;4992750;28;20050;-80
2021/04/17 01:51:46;;;;;;;9.07;4.38;;;8.50;65.80;;;7.91;56.68;101510.13;4995910;28;20470;-80
2021/04/17 01:54:19;;;;;;;7.32;3.92;;;8.40;65.70;;;7.77;57.04;101512.25;4991453;28;20043;-80
2021/04/17 01:56:48;;;;;;;9.52;4.53;;;8.30;66.10;;;7.80;57.16;101514.66;4995706;28;20113;-80
2021/04/17 01:59:21;;;;;;;7.88;4.05;;;8.30;66.00;;;7.78;57.09;101513.94;4995229;28;20057;-80
2021/04/17 02:01:48;;;;;;;8.30;4.43;;;8.20;66.00;;;7.85;57.03;101510.69;4996143;28;20076;-80
2021/04/17 02:04:15;;;;;;;11.45;4.18;;;8.20;66.20;;;7.76;56.82;101506.97;4995254;28;20073;-80
2021/04/17 02:06:42;;;;;;;8.40;4.40;;;8.30;66.50;;;7.72;56.71;101511.81;4996517;28;20042;-80
2021/04/17 02:09:10;;;;;;;7.03;3.90;;;8.10;66.50;;;7.65;57.25;101502.53;4996037;28;20126;-80
2021/04/17 02:11:37;;;;;;;8.98;4.50;;;8.00;66.90;;;7.55;57.84;101510.66;4996367;28;20081;-80
2021/04/17 02:14:05;;;;;;;7.85;4.57;;;7.90;66.90;;;7.47;58.18;101506.94;4995630;28;20050;-80
2021/04/17 02:16:42;;;;;;;11.57;4.38;;;7.90;67.30;;;7.65;57.03;101505.22;4994347;28;20503;-80
2021/04/17 02:19:14;;;;;;;8.40;4.30;;;7.90;67.20;;;7.46;57.56;101505.22;4996577;28;20047;-80
2021/04/17 02:21:46;;;;;;;9.25;4.18;;;7.80;67.50;;;7.38;58.47;101512.19;4996254;28;20073;-80
2021/04/17 02:24:12;;;;;;;8.18;4.25;;;7.80;68.00;;;7.31;58.00;101505.63;4995598;28;20061;-80
2021/04/17 02:26:40;;;;;;;9.00;4.10;;;7.70;68.00;;;7.15;58.70;101502.59;4995942;28;20129;-80
2021/04/17 02:29:07;;;;;;;8.32;4.63;;;7.70;68.20;;;7.02;59.10;101497.41;4995830;28;20046;-80
2021/04/17 02:31:36;;;;;;;8.52;4.57;;;7.60;68.40;;;6.90;60.02;101499.38;4996271;28;20049;-80
2021/04/17 02:34:04;;;;;;;10.45;4.47;;;7.50;68.80;;;6.81;59.21;101494.75;4995134;28;20066;-80
2021/04/17 02:36:31;;;;;;;9.13;4.18;;;7.40;68.70;;;6.81;59.80;101492.06;4996339;28;20454;-80
2021/04/17 02:38:57;;;;;;;8.55;4.75;;;7.40;68.80;;;6.76;59.52;101497.00;4995869;28;20125;-80
2021/04/17 02:41:24;;;;;;;9.77;4.70;;;7.30;69.20;;;6.65;60.23;101501.53;4995740;28;20053;-80
2021/04/17 02:43:51;;;;;;;9.82;4.50;;;7.30;69.40;;;6.59;60.37;101510.19;4995382;28;20070;-80
2021/04/17 02:46:18;;;;;;;8.90;4.43;;;7.20;69.50;;;6.54;60.59;101504.31;4996003;28;20418;-80
2021/04/17 02:48:45;;;;;;;10.07;4.13;;;7.20;69.70;;;6.51;61.09;101499.19;4995300;28;20069;-80
2021/04/17 02:51:12;;;;;;;8.25;4.28;;;7.10;70.00;;;6.46;60.77;101512.25;4995658;28;20080;-80
2021/04/17 02:53:39;;;;;;;10.60;4.57;;;7.10;70.10;;;6.41;60.86;101509.06;4994978;28;20051;-80
2021/04/17 02:56:07;;;;;;;10.15;4.32;;;7.00;70.30;;;6.40;60.96;101512.78;4990972;28;20138;-80
2021/04/17 02:58:34;;;;;;;8.00;4.53;;;7.00;70.40;;;6.36;61.31;101508.59;4995695;28;20050;-80
2021/04/17 03:01:01;;;;;;;10.13;4.80;;;6.90;70.60;;;6.31;61.39;101508.16;4994809;28;20525;-80
2021/04/17 03:03:28;;;;;;;8.43;4.50;;;6.90;70.70;;;6.24;61.25;101508.72;4994299;28;20035;-80
2021/04/17 03:05:56;;;;;;;7.43;4.60;;;6.80;70.80;;;6.24;61.44;101507.81;4995772;28;20585;-80
2021/04/17 03:08:23;;;;;;;10.77;4.45;;;6.80;71.00;;;6.23;61.22;101506.97;4989477;28;20054;-80
2021/04/17 03:10:50;;;;;;;8.52;4.40;;;6.70;71.00;;;6.19;61.55;101508.22;4994795;28;20107;-80
2021/04/17 03:13:17;;;;;;;7.03;4.35;;;6.70;71.40;;;6.10;61.99;101511.72;4994825;28;20046;-80
2021/04/17 03:15:44;;;;;;;8.70;4.18;;;6.70;71.50;;;6.07;62.10;101507.44;4995064;28;20061;-80
2021/04/17 03:18:11;;;;;;;11.43;4.13;;;6.60;71.40;;;6.08;61.90;101513.69;4995186;28;20122;-80
2021/04/17 03:20:38;;;;;;;11.50;4.68;;;6.60;71.60;;;6.01;61.97;101516.06;4995111;28;20042;-80
2021/04/17 03:23:06;;;;;;;8.55;4.43;;;6.70;71.90;;;5.96;62.49;101506.63;4994688;28;20065;-80
2021/04/17 03:25:32;;;;;;;8.98;4.32;;;6.50;71.80;;;5.98;62.33;101513.63;4994856;28;20463;-80
2021/04/17 03:27:59;;;;;;;8.48;4.22;;;6.50;72.00;;;6.11;62.13;101508.03;4994535;28;20422;-80
2021/04/17 03:30:28;;;;;;;8.55;4.32;;;6.50;72.20;;;6.12;62.25;101498.09;4994116;28;20061;-79
2021/04/17 03:32:56;;;;;;;8.27;4.72;;;6.50;72.40;;;6.19;62.06;101499.28;4994867;28;20053;-81
2021/04/17 03:35:24;;;;;;;9.35;4.50;;;6.50;72.60;;;6.22;61.55;101499.84;4995779;28;20073;-80
2021/04/17 03:37:52;;;;;;;8.75;4.57;;;6.50;72.60;;;6.20;61.78;101496.41;4995630;28;20074;-80
2021/04/17 03:40:20;;;;;;;9.30;4.32;;;6.40;72.50;;;6.14;62.17;101501.50;4994618;28;20046;-82
2021/04/17 03:42:48;;;;;;;11.32;4.50;;;6.40;72.80;;;6.00;62.34;101505.41;4992827;28;20069;-80
2021/04/17 03:45:16;;;;;;;9.48;4.60;;;6.30;73.10;;;5.95;62.43;101510.28;4988649;28;20046;-80
2021/04/17 03:47:43;;;;;;;11.70;4.70;;;6.30;73.40;;;5.81;62.92;101509.63;4981090;28;20046;-80
2021/04/17 03:50:12;;;;;;;8.75;4.15;;;6.30;73.40;;;5.71;63.22;101502.41;4994512;28;20048;-80
2021/04/17 03:52:40;;;;;;;10.88;4.10;;;6.30;73.40;;;5.64;63.38;101510.19;4992748;28;20046;-80
2021/04/17 03:55:11;;;;;;;13.32;4.63;;;6.20;73.30;;;5.65;63.03;101511.88;4994206;28;20070;-80
2021/04/17 03:57:40;;;;;;;11.73;4.78;;;6.20;73.30;;;5.62;63.23;101512.16;4987364;28;20617;-80
2021/04/17 04:00:10;;;;;;;11.18;4.68;;;6.20;73.50;;;5.63;63.48;101508.44;4988388;28;20069;-80
2021/04/17 04:02:37;;;;;;;10.43;4.87;;;6.10;73.60;;;5.72;63.39;101518.47;4984591;28;20050;-81
2021/04/17 04:05:06;;;;;;;10.55;4.93;;;6.10;73.70;;;5.67;63.51;101520.69;4994539;28;20135;-81
2021/04/17 04:07:33;;;;;;;9.40;4.57;;;6.10;73.80;;;5.67;63.61;101515.31;4995605;28;20042;-80
2021/04/17 04:09:59;;;;;;;11.68;4.82;;;6.10;74.00;;;5.64;64.03;101519.13;4994791;28;20049;-82
2021/04/17 04:12:26;;;;;;;10.75;4.55;;;6.10;74.30;;;5.69;63.73;101521.44;4994399;28;20078;-82
2021/04/17 04:14:54;;;;;;;10.23;4.65;;;6.10;74.30;;;5.74;63.28;101518.38;4993850;28;20047;-82
2021/04/17 04:17:21;;;;;;;10.65;5.05;;;6.10;74.50;;;5.67;63.87;101515.31;4994379;28;20046;-82
2021/04/17 04:19:47;;;;;;;10.82;5.20;;;6.10;74.70;;;5.63;63.80;101519.25;4994758;28;20061;-83
2021/04/17 04:22:14;;;;;;;9.73;4.50;;;6.10;74.90;;;5.65;63.90;101517.28;4994944;28;20454;-82
2021/04/17 04:24:41;;;;;;;11.23;5.57;;;6.00;74.60;;;5.66;63.64;101530.66;4993797;28;20826;-82
2021/04/17 04:27:08;;;;;;;9.32;4.88;;;6.00;74.60;;;5.67;63.50;101532.38;4994367;28;20392;-82
2021/04/17 04:29:35;;;;;;;10.75;5.40;;;6.10;74.60;;;5.57;63.74;101522.47;4993775;28;20050;-82
2021/04/17 04:32:03;;;;;;;13.25;5.20;;;6.00;74.60;;;5.57;63.91;101535.97;4993708;28;20070;-83
2021/04/17 04:34:30;;;;;;;12.30;5.35;;;6.00;74.50;;;5.47;63.85;101530.47;4991594;28;20042;-81
2021/04/17 04:36:57;;;;;;;13.60;5.28;;;6.00;74.70;;;5.49;64.39;101529.34;4990797;28;20551;-81
2021/04/17 04:39:24;;;;;;;11.00;5.50;;;5.90;74.70;;;5.48;64.12;101533.06;4987047;28;20507;-81
2021/04/17 04:41:51;;;;;;;9.93;5.32;;;5.90;74.80;;;5.48;64.66;101543.84;4992102;28;20066;-81
2021/04/17 04:44:18;;;;;;;10.88;4.88;;;5.90;75.00;;;5.40;64.61;101540.91;4993242;28;20042;-82
2021/04/17 04:46:45;;;;;;;10.38;4.95;;;5.90;75.20;;;5.39;64.86;101544.59;4994075;28;20050;-82
2021/04/17 04:49:12;;;;;;;11.13;5.50;;;5.90;75.30;;;5.35;64.89;101542.25;4994605;28;20467;-82
2021/04/17 04:51:39;;;;;;;9.43;5.50;;;5.90;75.60;;;5.40;65.26;101543.59;4994083;28;20507;-82
2021/04/17 04:54:06;;;;;;;13.07;5.35;;;5.90;75.60;;;5.40;65.33;101538.19;4987914;28;20739;-82
2021/04/17 04:56:33;;;;;;;10.30;4.80;;;5.90;75.80;;;5.37;65.53;101541.16;4994468;28;20050;-82
2021/04/17 04:59:00;;;;;;;8.38;4.75;;;5.90;76.10;;;5.34;65.79;101538.72;4994519;28;20047;-82
2021/04/17 05:01:27;;;;;;;10.32;5.50;;;5.90;76.30;;;5.50;65.52;101535.59;4993912;28;20052;-81
2021/04/17 05:03:54;;;;;;;11.52;5.55;;;5.90;76.50;;;5.46;65.62;101535.03;4993161;28;20069;-82
2021/04/17 05:06:22;;;;;;;10.85;5.05;;;5.90;76.70;;;5.51;66.38;101539.19;4993482;28;20494;-82
2021/04/17 05:08:48;;;;;;;9.77;5.20;;;5.90;77.10;;;5.55;66.31;101532.53;4993632;28;20042;-82
2021/04/17 05:11:15;;;;;;;11.23;5.45;;;6.00;77.20;;;5.65;66.03;101530.78;4986393;28;20459;-82
2021/04/17 05:13:42;;;;;;;11.50;5.78;;;6.00;77.20;;;5.66;66.30;101530.66;4992635;28;20130;-81
2021/04/17 05:16:09;;;;;;;11.38;5.40;;;6.10;77.60;;;5.66;66.29;101529.81;4993504;28;20047;-85
2021/04/17 05:18:35;;;;;;;14.07;5.60;;;6.10;77.40;;;5.82;66.33;101532.91;4994666;28;20122;-83
2021/04/17 05:21:03;;;;;;;13.98;6.03;;;6.10;77.20;;;5.92;66.42;101529.44;4994529;28;20050;-84
2021/04/17 05:23:30;;;;;;;11.30;5.65;;;6.20;77.50;;;5.90;66.36;101534.13;4993249;28;20488;-84
2021/04/17 05:25:57;;;;;;;11.25;5.60;;;6.30;77.80;;;6.13;65.21;101530.38;4996651;28;20451;-85
2021/04/17 05:28:24;;;;;;;11.27;5.43;;;6.30;77.30;;;6.31;63.61;101532.50;4999814;28;20674;-83
2021/04/17 05:30:50;;;;;;;14.02;5.80;;;6.40;76.30;;;6.44;62.95;101525.91;4998967;28;20117;-86
2021/04/17 05:33:17;;;;;;;12.77;5.90;;;6.50;75.80;;;6.56;63.03;101523.97;4995771;28;20105;-84
2021/04/17 05:35:44;;;;;;;10.98;5.57;;;6.60;75.80;;;6.65;63.37;101525.88;4996519;28;20050;-82
2021/04/17 05:38:11;;;;;;;12.85;5.43;;;6.60;76.20;;;6.72;62.45;101525.31;4996624;28;20619;-84
2021/04/17 05:40:38;;;;;;;10.50;5.43;;;6.70;75.60;;;6.80;62.32;101530.94;4995981;28;20054;-84
2021/04/17 05:43:05;;;;;;;12.15;5.85;;;6.70;75.50;;;6.84;61.78;101521.56;4995641;28;20411;-84
2021/04/17 05:45:32;;;;;;;16.50;5.65;;;6.80;74.70;;;6.90;60.96;101520.16;4996596;28;20049;-84
2021/04/17 05:47:59;;;;;;;13.63;5.85;;;6.90;74.00;;;6.94;61.39;101521.59;4996243;28;20047;-84
2021/04/17 05:50:25;;;;;;;12.90;5.60;;;6.90;73.80;;;6.98;60.78;101523.88;4996285;28;20085;-84
2021/04/17 05:52:52;;;;;;;13.45;5.60;;;7.10;73.40;;;7.04;60.12;101523.34;4995025;28;20154;-84
2021/04/17 05:55:19;;;;;;;12.30;5.65;;;7.10;73.00;;;7.12;59.67;101525.38;4996032;28;20042;-84
2021/04/17 05:57:47;;;;;;;9.35;5.15;;;7.10;72.60;;;7.15;59.76;101521.53;4994704;28;20137;-84
2021/04/17 06:00:15;;;;;;;10.13;5.82;;;7.10;72.30;;;7.16;59.91;101517.81;4996354;28;20046;-84
2021/04/17 06:02:41;;;;;;;11.95;5.55;;;7.20;72.40;;;7.17;60.32;101522.25;4995118;28;20125;-85
2021/04/17 06:05:10;;;;;;;12.45;5.18;;;7.30;72.20;;;7.18;60.07;101524.81;4997251;28;20442;-85
2021/04/17 06:07:37;;;;;;;12.13;5.45;;;7.30;72.70;;;7.23;60.17;101524.41;4997998;28;20046;-84
2021/04/17 06:10:05;;;;;;;11.32;5.30;;;7.30;71.90;;;7.27;59.87;101528.53;4997293;28;20046;-86
2021/04/17 06:12:32;;;;;;;13.80;5.25;;;7.40;71.40;;;7.29;58.57;101525.69;4997745;28;20054;-84
2021/04/17 06:15:00;;;;;;;11.70;5.28;;;7.40;70.90;;;7.32;58.64;101520.03;4996519;28;20065;-84
2021/04/17 06:17:26;;;;;;;12.32;5.00;;;7.40;70.60;;;7.32;59.48;101520.88;4991297;28;20423;-84
2021/04/17 06:19:53;;;;;;;11.60;5.18;;;7.50;71.90;;;7.35;59.66;101520.59;4997497;28;20054;-83
2021/04/17 06:22:20;;;;;;;12.43;5.15;;;7.50;71.80;;;7.39;59.31;101522.03;4997718;28;20089;-84
2021/04/17 06:24:47;;;;;;;9.88;4.72;;;7.60;70.90;;;7.41;59.26;101525.44;4997357;28;20046;-84
2021/04/17 06:27:13;;;;;;;10.30;5.30;;;7.60;70.70;;;7.42;58.50;101527.19;4997466;28;20046;-84
2021/04/17 06:29:40;;;;;;;11.82;5.25;;;7.60;70.40;;;7.47;58.74;101524.03;4997931;28;20140;-84
2021/04/17 06:32:09;;;;;;;11.52;5.43;;;7.70;70.40;;;7.49;59.08;101526.63;4997275;28;20097;-83
2021/04/17 06:34:35;;;;;;;10.00;5.05;;;7.70;70.60;;;7.51;59.21;101524.63;4996586;28;20128;-84
2021/04/17 06:37:02;;;;;;;11.38;5.03;;;7.80;70.20;;;7.53;59.69;101523.47;4994608;28;20047;-83
2021/04/17 06:39:29;;;;;;;11.35;5.15;;;7.80;70.60;;;7.54;59.22;101521.63;4996175;28;20080;-83
2021/04/17 06:41:58;;;;;;;12.48;5.45;;;7.90;70.40;;;7.58;59.21;101521.22;4993004;28;20529;-84
2021/04/17 06:44:25;;;;;;;12.63;5.60;;;7.90;70.10;;;7.61;59.42;101520.06;4994485;28;20774;-83
2021/04/17 06:46:52;;;;;;;15.57;5.65;;;8.00;69.90;;;7.66;59.09;101512.38;4995099;28;20049;-83
2021/04/17 06:49:20;;;;;;;10.77;5.45;;;8.10;69.40;;;7.71;58.58;101511.94;4987634;28;20047;-83
2021/04/17 06:51:51;;;;;;;14.35;5.47;;;8.10;69.20;;;7.76;59.08;101513.22;4993653;28;20117;-83
2021/04/17 06:54:21;;;;;;;14.05;5.57;;;8.20;69.30;;;7.78;58.68;101522.06;4993958;28;20050;-83
2021/04/17 06:56:50;;;;;;;14.75;5.82;;;8.30;69.50;;;7.79;58.60;101512.97;4995539;28;20077;-83
2021/04/17 06:59:17;;;;;;;12.90;5.43;;;8.30;68.90;;;7.83;58.11;101513.53;4995222;28;20100;-84
2021/04/17 07:01:44;;;;;;;14.57;5.65;;;8.30;68.70;;;7.86;58.45;101506.97;4994894;28;20053;-84
2021/04/17 07:04:14;;;;;;;12.30;5.03;;;8.40;68.60;;;7.91;58.63;101510.13;4994184;28;20204;-83
2021/04/17 07:06:42;;;;;;;16.00;5.72;;;8.40;68.30;;;7.93;58.12;101510.81;4994386;28;20101;-83
2021/04/17 07:09:09;;;;;;;14.68;5.93;;;8.50;68.10;;;7.99;58.28;101508.38;4994900;28;20113;-83
2021/04/17 07:11:36;;;;;;;17.52;5.88;;;8.60;68.50;;;8.03;57.24;101509.84;4995858;28;20074;-83
2021/04/17 07:14:08;;;;;;;13.95;5.72;;;8.60;67.20;;;8.07;58.45;101504.94;4994009;28;20050;-83
2021/04/17 07:16:59;;;;;;;13.15;5.47;;;8.70;67.80;;;8.13;58.37;101515.25;4994988;28;20074;-84
2021/04/17 07:19:56;;;;;;;18.42;6.07;;;8.80;67.00;;;8.15;57.52;101512.41;4994665;28;20443;-82
2021/04/17 07:22:26;;;;;;;14.68;5.90;;;8.80;66.90;;;8.22;57.51;101505.38;4990176;28;20605;-84
2021/04/17 07:24:55;;;;;;;18.20;6.05;;;8.90;66.50;;;8.29;56.92;101503.78;4993196;28;20043;-83
2021/04/17 07:27:37;;;;;;;12.73;5.55;;;9.00;66.30;;;8.32;56.03;101508.06;4993974;28;20041;-84
2021/04/17 07:30:27;;;;;;;15.00;6.03;;;9.10;65.60;;;8.40;57.37;101502.78;4994459;28;20061;-84
2021/04/17 07:33:14;;;;;;;17.75;6.60;;;9.20;66.20;;;8.49;58.01;101507.38;4988557;28;20492;-84
2021/04/17 07:35:43;;;;;;;16.95;6.20;;;9.30;66.30;;;8.54;57.63;101505.06;4993880;28;20046;-84
2021/04/17 07:38:17;;;;;;;13.40;5.78;;;9.40;65.50;;;8.58;56.53;101511.03;4994617;28;20074;-82
2021/04/17 07:40:46;;;;;;;10.38;5.35;;;9.50;64.40;;;8.61;56.61;101503.47;4993957;28;20598;-83
2021/04/17 07:43:17;;;;;;;13.70;5.50;;;9.50;64.60;;;8.65;56.32;101509.47;4995586;28;20057;-82
2021/04/17 07:45:45;;;;;;;12.88;6.15;;;9.60;64.70;;;8.67;55.87;101501.19;4994969;28;20521;-82
2021/04/17 07:48:25;;;;;;;10.05;5.28;;;9.60;63.10;;;8.71;55.88;101499.88;4994426;28;20077;-84
2021/04/17 07:50:53;;;;;;;12.03;5.70;;;9.60;63.30;;;8.73;55.87;101497.88;4995291;28;20124;-80
2021/04/17 07:53:30;;;;;;;11.50;5.45;;;9.70;63.30;;;8.81;56.47;101503.41;4993457;28;20309;-81
2021/04/17 07:56:18;;;;;;;15.85;6.22;;;9.70;64.20;;;8.87;56.40;101501.94;4988276;28;20039;-85
2021/04/17 07:58:49;;;;;;;14.52;6.30;;;9.80;64.20;;;8.90;55.86;101497.06;4991757;28;20561;-85
2021/04/17 08:01:16;;;;;;;;;;;9.90;63.20;;;8.93;55.62;101495.91;4990138;28;20488;-83
2021/04/17 08:03:44;;;;;;;14.15;5.30;;;9.90;63.60;;;8.95;56.60;101492.06;4990604;28;20016;-84
2021/04/17 08:06:11;;;;;;;14.18;5.22;;;10.00;63.90;;;9.03;56.62;101495.91;4993229;28;20285;-84
2021/04/17 08:08:40;;;;;;;14.15;5.25;;;10.10;64.10;;;9.03;56.13;101491.31;4993824;28;20070;-82
2021/04/17 08:11:08;;;;;;;13.55;5.65;;;10.10;63.50;;;9.07;57.29;101500.84;4994622;28;20050;-83
2021/04/17 08:13:39;;;;;;;11.30;5.43;;;10.20;64.10;;;9.13;56.82;101494.81;4993186;28;20399;-83
2021/04/17 08:16:07;;;;;;;;;;;10.20;63.90;;;9.14;56.76;101491.09;4993638;28;20116;-83
2021/04/17 08:18:36;;;;;;;10.23;5.30;;;10.30;63.60;;;9.19;56.65;101485.22;4991871;28;19925;-83
2021/04/17 08:21:03;;;;;;;13.05;5.03;;;10.30;63.40;;;9.20;55.07;101474.19;4993158;28;20057;-84
2021/04/17 08:23:31;;;;;;;13.27;5.20;;;10.30;61.70;;;9.24;55.62;101482.91;4993118;28;20046;-84
2021/04/17 08:25:59;;;;;;;11.02;5.13;;;10.30;62.40;;;9.27;55.60;101482.59;4993988;28;20149;-85
2021/04/17 08:28:28;;;;;;;12.43;5.05;;;10.40;62.30;;;9.32;55.34;101474.84;4994294;28;20511;-86
2021/04/17 08:31:25;;;;;;;9.18;4.70;;;10.50;61.90;;;9.42;55.33;101480.19;4992786;28;20047;-84
2021/04/17 08:34:14;;;;;;;8.65;3.95;;;10.50;62.00;;;9.47;54.79;101479.75;4987033;28;20073;-83
2021/04/17 08:36:45;;;;;;;10.48;4.00;;;10.60;60.90;;;9.48;54.27;101467.88;4994696;28;20046;-84
2021/04/17 08:39:42;;;;;;;9.82;3.97;;;10.60;59.60;;;9.47;53.11;101477.88;4995369;28;20042;-83
2021/04/17 08:42:15;;;;;;;8.40;4.18;;;10.60;59.20;;;9.56;54.86;101476.13;4988804;28;20050;-82
2021/04/17 08:44:45;;;;;;;12.23;4.57;;;10.80;61.10;;;9.63;54.70;101466.31;4989479;28;20062;-83
2021/04/17 08:47:15;;;;;;;11.82;4.78;;;10.80;60.80;;;9.65;54.22;101468.88;4994537;28;20558;-81
2021/04/17 08:49:44;;;;;;;11.63;4.35;;;10.90;60.20;;;9.64;53.21;101473.47;4993699;28;20046;-80
2021/04/17 08:52:21;;;;;;;8.35;4.00;;;10.90;59.40;;;9.72;53.69;101465.38;4986846;28;20493;-81
2021/04/17 08:55:11;;;;;;;10.80;3.88;;;11.00;60.00;;;9.81;53.25;101469.06;4992873;28;20042;-81
2021/04/17 08:57:39;;;;;;;16.08;4.28;;;11.00;59.70;;;9.81;52.75;101469.06;4993132;28;20050;-81
2021/04/17 09:00:07;;;;;;;11.60;4.00;;;11.10;58.30;;;9.83;53.36;101461.59;4993092;28;20502;-81
2021/04/17 09:02:46;;;;;;;10.25;3.70;;;11.10;59.20;;;9.88;52.70;101470.16;4991551;28;20042;-82
2021/04/17 09:05:16;;;;;;;10.93;4.07;;;11.20;58.50;;;9.96;53.45;101470.22;4997340;28;20124;-82
2021/04/17 09:07:45;;;;;;;12.60;3.88;;;11.30;58.70;;;9.94;52.67;101465.94;4996734;28;20089;-82
2021/04/17 09:10:32;;;;;;;12.05;4.10;;;11.20;56.80;;;9.94;51.73;101460.50;4995088;28;20046;-81
2021/04/17 09:13:34;;;;;;;8.27;3.60;;;11.20;56.00;;;9.96;51.89;101455.75;4987307;28;21486;-81
2021/04/17 09:16:04;;;;;;;8.90;3.60;;;11.20;57.00;;;9.98;50.96;101459.19;4993648;28;20043;-81
2021/04/17 09:18:46;;;;;;;8.52;4.00;;;11.20;56.10;;;10.00;51.42;101454.44;4991894;28;20050;-82
2021/04/17 09:21:39;;;;;;;10.43;4.05;;;11.30;56.40;;;10.08;52.33;101457.19;4990792;28;20066;-81
2021/04/17 09:24:26;;;;;;;10.02;4.07;;;11.30;57.40;;;10.05;51.89;101452.09;4995052;28;20042;-81
2021/04/17 09:26:53;;;;;;;10.45;3.92;;;11.30;57.10;;;10.10;52.33;101459.78;4990993;28;20133;-81
2021/04/17 09:29:27;;;;;;;9.57;4.28;;;11.40;57.50;;;10.09;51.52;101455.31;4996352;28;20142;-83
2021/04/17 09:31:58;;;;;;;12.38;3.78;;;11.40;56.50;;;10.12;51.53;101453.16;4992070;28;20062;-82
2021/04/17 09:34:25;;;;;;;9.90;3.30;;;11.40;55.60;;;10.12;49.41;101444.16;4993978;28;20035;-82
2021/04/17 09:36:52;;;;;;;9.73;3.55;;;11.40;53.50;;;10.14;50.40;101440.25;4998284;28;20057;-82
2021/04/17 09:39:28;;;;;;;10.00;3.80;;;11.40;55.30;;;10.18;50.48;101443.50;4998372;28;20042;-82
2021/04/17 09:42:01;;;;;;;11.45;3.88;;;11.40;54.50;;;10.23;51.01;101434.88;4998467;28;20050;-82
2021/04/17 09:44:44;;;;;;;8.95;3.30;;;11.50;55.90;;;10.26;50.19;101445.44;4999985;28;20058;-82
2021/04/17 09:47:14;;;;;;;7.88;2.97;;;11.60;54.50;;;10.29;50.44;101429.63;4998251;28;20053;-82
2021/04/17 09:49:44;;;;;;;6.07;3.00;;;11.60;54.30;;;10.31;49.13;101438.53;4999016;28;20133;-82
2021/04/17 09:52:16;;;;;;;11.02;3.22;;;11.60;53.70;;;10.31;48.59;101438.53;5001989;28;20173;-82
2021/04/17 09:54:44;;;;;;;10.20;3.95;;;11.60;53.40;;;10.32;48.53;101428.50;5003174;28;20046;-82
2021/04/17 09:57:12;;;;;;;6.47;3.30;;;11.60;53.60;;;10.34;49.14;101434.66;5000288;28;20076;-82
2021/04/17 09:59:53;;;;;;;10.63;3.70;;;11.60;53.00;;;10.37;49.60;101420.69;5003648;28;20656;-82
2021/04/17 10:02:20;;;;;;;8.63;3.25;;;11.60;53.70;;;10.40;50.08;101425.84;4998222;28;20054;-82
2021/04/17 10:04:54;;;;;;;10.50;4.25;;;11.70;54.10;;;10.41;49.72;101415.78;4997123;28;20048;-82
2021/04/17 10:07:21;;;;;;;11.85;3.63;;;11.70;53.20;;;10.41;49.08;101413.06;4997515;28;20089;-82
2021/04/17 10:10:04;;;;;;;8.18;3.50;;;11.70;52.90;;;10.42;49.65;101410.19;4997676;28;20038;-82
2021/04/17 10:12:46;;;;;;;8.05;3.95;;;11.70;53.30;;;10.44;50.12;101405.44;4994960;28;20499;-82
2021/04/17 10:15:20;;;;;;;7.55;3.35;;;11.70;54.20;;;10.46;48.96;101411.56;5000681;28;20050;-83
2021/04/17 10:17:49;;;;;;;11.63;4.55;;;11.80;53.30;;;10.48;49.22;101406.81;4996800;28;20057;-81
2021/04/17 10:20:17;;;;;;;10.23;3.15;;;11.80;53.10;;;10.49;49.21;101413.09;4994940;28;20423;-81
2021/04/17 10:22:51;;;;;;;11.05;3.65;;;11.80;53.20;;;10.51;50.60;101395.63;4995849;28;20061;-81
2021/04/17 10:25:36;;;;;;;10.05;3.30;;;11.80;53.90;;;10.53;49.78;101393.59;4998051;28;20463;-81
2021/04/17 10:28:13;;;;;;;6.88;3.08;;;11.80;53.70;;;10.57;50.43;101389.53;4988270;28;20061;-83
2021/04/17 10:30:48;;;;;;;8.35;3.53;;;11.90;54.80;;;10.61;50.32;101386.47;4995010;28;20050;-85
2021/04/17 10:33:19;;;;;;;12.57;3.30;;;12.00;54.30;;;10.61;49.49;101383.75;4996280;28;20046;-82